Surface/Precipitation History
02/19/2018 18:43  to  2/20/2018 18:43
Change End Date:
Date/Time
(MST)
Sf
Temp Chem Water Layer Surface Precipitation
Sfc Pvt Sub Frz Factor Pct Dpth DpthThk IcePct Cond Salin FI Type Intens Accum Rate
02/20/2018 18:36 Dry 5.9F - 15F - - - - - - 0 mhos 12 - None None 0.02 in 0.0 iph
02/20/2018 18:28 Dry 6.4F - 15F - - - - - - 0 mhos 12 - None None 0.02 in 0.0 iph
02/20/2018 18:21 Dry 6.6F - 15F - - - - - - 0 mhos 12 - None None 0.02 in 0.0 iph
02/20/2018 18:18 Dry 6.6F - 15F - - - - - - 0 mhos 12 - None None 0.02 in 0.0 iph
02/20/2018 18:08 Dry 7.3F - 15F - - - - - - 0 mhos 12 - None None 0.02 in 0.0 iph
02/20/2018 18:06 Dry 7.3F - 15F - - - - - - 0 mhos 12 - None None 0.02 in 0.0 iph
02/20/2018 17:58 Dry 7.7F - 15F - - - - - - 0 mhos 13 - None None 0.02 in 0.0 iph
02/20/2018 17:51 Dry 8.4F - 15F - - - - - - 0 mhos 13 - None None 0.02 in 0.0 iph
02/20/2018 17:48 Dry 8.6F - 15F - - - - - - 0 mhos 13 - None None 0.02 in 0.0 iph
02/20/2018 17:38 Dry 9.5F - 15F - - - - - - 0 mhos 14 - None None 0.02 in 0.0 iph
02/20/2018 17:36 Dry 9.7F - 15F - - - - - - 0 mhos 14 - None None 0.02 in 0.0 iph
02/20/2018 17:28 Dry 10.4F - 15F - - - - - - 0 mhos 15 - None None 0.02 in 0.0 iph
02/20/2018 17:21 Dry 11.1F - 15F - - - - - - 0 mhos 15 - None None 0.02 in 0.0 iph
02/20/2018 17:18 Dry 11.5F - 15F - - - - - - 0 mhos 15 - None None 0.02 in 0.0 iph
02/20/2018 17:08 Dry 12.2F - 15F - - - - - - 0 mhos 16 - None None 0.02 in 0.0 iph
Date/Time
(MST)
Sf
Temp Chem Water Layer Surface Precipitation
Sfc Pvt Sub Frz Factor Pct Dpth DpthThk IcePct Cond Salin FI Type Intens Accum Rate
02/20/2018 17:06 Dry 12.4F - 15F - - - - - - 0 mhos 16 - None None 0.02 in 0.0 iph
02/20/2018 16:58 Dry 13.3F - 15F - - - - - - 0 mhos 17 - None None 0.02 in 0.0 iph
02/20/2018 16:51 Dry 13.6F - 15F - - - - - - 0 mhos 17 - None None 0.02 in 0.0 iph
02/20/2018 16:48 Dry 14.2F - 15F - - - - - - 0 mhos 18 - None None 0.02 in 0.0 iph
02/20/2018 16:37 Dry 15.4F - 15F - - - - - - 0 mhos 19 - None None 0.02 in 0.0 iph
02/20/2018 16:36 Dry 15.4F - 15F - - - - - - 0 mhos 19 - None None 0.02 in 0.0 iph
02/20/2018 16:27 Dry 16.7F - 15F - - - - - - 0 mhos 19 - None None 0.02 in 0.0 iph
02/20/2018 16:21 Dry 17.6F - 15F - - - - - - 0 mhos 21 - None None 0.02 in 0.0 iph
02/20/2018 16:17 Dry 18.3F - 15F - - - - - - 0 mhos 21 - None None 0.02 in 0.0 iph
02/20/2018 16:07 Dry 18.9F - 15F - - - - - - 0 mhos 21 - None None 0.02 in 0.0 iph
02/20/2018 16:06 Dry 18.7F - 15F - - - - - - 0 mhos 22 - None None 0.02 in 0.0 iph
02/20/2018 15:57 Dry 19.8F - 14F - - - - - - 0 mhos 23 - None None 0.02 in 0.0 iph
02/20/2018 15:51 Dry 20.7F - 14F - - - - - - 0 mhos 24 - None None 0.02 in 0.0 iph
02/20/2018 15:47 Dry 21.9F - 14F - - - - - - 0 mhos 26 - None None 0.02 in 0.0 iph
02/20/2018 15:37 Dry 19.4F - 14F - - - - - - 0 mhos 23 - None None 0.02 in 0.0 iph
Date/Time
(MST)
Sf
Temp Chem Water Layer Surface Precipitation
Sfc Pvt Sub Frz Factor Pct Dpth DpthThk IcePct Cond Salin FI Type Intens Accum Rate
02/20/2018 15:36 Dry 19.4F - 14F - - - - - - 0 mhos 23 - None None 0.02 in 0.0 iph
02/20/2018 15:27 Dry 19.6F - 14F - - - - - - 0 mhos 24 - None None 0.02 in 0.0 iph
02/20/2018 15:21 Dry 18.3F - 14F - - - - - - 0 mhos 22 - None None 0.02 in 0.0 iph
02/20/2018 15:17 Dry 17.8F - 14F - - - - - - 0 mhos 22 - None None 0.02 in 0.0 iph
02/20/2018 15:07 Dry 20.7F - 14F - - - - - - 0 mhos 24 - Snow Slight 0.02 in 0.0 iph
02/20/2018 15:06 Dry 20.7F - 14F - - - - - - 0 mhos 24 - Snow Slight 0.01 in 0.0 iph
02/20/2018 14:57 Dry 20.8F - 14F - - - - - - 0 mhos 25 - Snow Slight 0.01 in 0.0 iph
02/20/2018 14:51 Dry 21.6F - 14F - - - - - - 0 mhos 27 - Snow Slight 0.01 in 0.0 iph
02/20/2018 14:47 Dry 21.7F - 14F - - - - - - 0 mhos 27 - Snow Slight 0.01 in 0.0 iph
02/20/2018 14:37 Dry 21.7F - 14F - - - - - - 0 mhos 27 - Snow Slight 0.01 in 0.1 iph
02/20/2018 14:36 Dry 21.9F - 14F - - - - - - 0 mhos 27 - Snow Slight 0.01 in 0.0 iph
02/20/2018 14:27 Dry 20.7F - 14F - - - - - - 0 mhos 26 - Snow Slight 0.00 in 0.0 iph
02/20/2018 14:21 Dry 21.9F - 14F - - - - - - 0 mhos 28 - Snow Slight 0.00 in 0.0 iph
02/20/2018 14:17 Dry 20.7F - 14F - - - - - - 0 mhos 26 - None None 0.00 in 0.0 iph
02/20/2018 14:07 Dry 21.6F - 14F - - - - - - 0 mhos 28 - Snow Slight 0.00 in 0.0 iph
Date/Time
(MST)
Sf
Temp Chem Water Layer Surface Precipitation
Sfc Pvt Sub Frz Factor Pct Dpth DpthThk IcePct Cond Salin FI Type Intens Accum Rate
02/20/2018 14:06 Dry 21.7F - 14F - - - - - - 0 mhos 29 - Snow Slight 0.00 in 0.0 iph
02/20/2018 13:57 Dry 22.8F - 14F - - - - - - 0 mhos 31 - None None 0.00 in 0.0 iph
02/20/2018 13:51 Dry 22.6F - 14F - - - - - - 0 mhos 31 - None None 0.00 in 0.0 iph
02/20/2018 13:46 Dry 22.3F - 14F - - - - - - 0 mhos 30 - None None 0.00 in 0.0 iph
02/20/2018 13:36 Dry 21.6F - 14F - - - - - - 0 mhos 29 - None None 0.00 in 0.0 iph
02/20/2018 13:36 Dry 21.4F - 14F - - - - - - 0 mhos 29 - None None 0.00 in 0.0 iph
02/20/2018 13:26 Dry 21.7F - 14F - - - - - - 0 mhos 31 - Snow Slight 0.00 in 0.0 iph
02/20/2018 13:21 Dry 22.3F - 14F - - - - - - 0 mhos 32 - None None 0.00 in 0.0 iph
02/20/2018 13:16 Dry 21.7F - 14F - - - - - - 0 mhos 30 - None None 0.00 in 0.0 iph
02/20/2018 13:06 Dry 20.8F - 14F - - - - - - 0 mhos 30 - None None 0.00 in 0.0 iph
02/20/2018 13:06 Dry 20.8F - 14F - - - - - - 0 mhos 29 - None None 0.00 in 0.0 iph
02/20/2018 12:56 Dry 20.5F - 14F - - - - - - 0 mhos 29 - None None 0.00 in 0.0 iph
02/20/2018 12:51 Dry 19.8F - 14F - - - - - - 0 mhos 28 - Snow Slight 0.00 in 0.0 iph
02/20/2018 12:46 Dry 19.4F - 14F - - - - - - 0 mhos 28 - Snow Slight 0.00 in 0.0 iph
02/20/2018 12:36 Dry 18.9F - 14F - - - - - - 0 mhos 28 - Snow Slight 0.00 in 0.0 iph
Date/Time
(MST)
Sf
Temp Chem Water Layer Surface Precipitation
Sfc Pvt Sub Frz Factor Pct Dpth DpthThk IcePct Cond Salin FI Type Intens Accum Rate
02/20/2018 12:36 Dry 18.9F - 14F - - - - - - 0 mhos 28 - Snow Slight 0.00 in 0.0 iph
02/20/2018 12:26 Dry 18.1F - 14F - - - - - - 0 mhos 27 - Snow Slight 0.00 in 0.0 iph
02/20/2018 12:21 Dry 17.8F - 14F - - - - - - 0 mhos 27 - Snow Slight 0.00 in 0.0 iph
02/20/2018 12:16 Dry 17.4F - 14F - - - - - - 0 mhos 27 - Snow Slight 0.00 in 0.0 iph
02/20/2018 12:06 Dry 16.7F - 13F - - - - - - 0 mhos 26 - Snow Slight 0.00 in 0.0 iph
02/20/2018 12:06 Dry 16.7F - 14F - - - - - - 0 mhos 26 - Snow Slight 0.00 in 0.0 iph
02/20/2018 11:56 Dry 15.8F - 14F - - - - - - 0 mhos 25 - Snow Slight 0.00 in 0.0 iph
02/20/2018 11:51 Dry 15.3F - 14F - - - - - - 0 mhos 25 - Snow Slight 0.00 in 0.0 iph
02/20/2018 11:46 Dry 14.7F - 14F - - - - - - 0 mhos 24 - Snow Slight 0.00 in 0.0 iph
02/20/2018 11:36 Dry 13.6F - 14F - - - - - - 0 mhos 24 - Snow Slight 0.00 in 0.0 iph
02/20/2018 11:36 Dry 13.6F - 14F - - - - - - 0 mhos 24 - Snow Slight 0.00 in 0.0 iph
02/20/2018 11:26 Dry 12.7F - 14F - - - - - - 0 mhos 23 - Snow Slight 0.00 in 0.0 iph
02/20/2018 11:21 Dry 12.2F - 14F - - - - - - 0 mhos 23 - Snow Slight 0.00 in 0.0 iph
02/20/2018 11:16 Dry 11.5F - 14F - - - - - - 0 mhos 22 - Snow Slight 0.00 in 0.0 iph
02/20/2018 11:06 Dry 10.4F - 14F - - - - - - 0 mhos 21 - Snow Slight 0.00 in 0.0 iph
Date/Time
(MST)
Sf
Temp Chem Water Layer Surface Precipitation
Sfc Pvt Sub Frz Factor Pct Dpth DpthThk IcePct Cond Salin FI Type Intens Accum Rate
02/20/2018 11:05 Dry 10.4F - 14F - - - - - - 0 mhos 21 - Snow Slight 0.00 in 0.0 iph
02/20/2018 10:55 Dry 9.0F - 14F - - - - - - 0 mhos 20 - Snow Slight 0.00 in 0.0 iph
02/20/2018 10:51 Dry 8.4F - 14F - - - - - - 0 mhos 20 - Snow Slight 0.00 in 0.0 iph
02/20/2018 10:45 Dry 7.5F - 14F - - - - - - 0 mhos 20 - Snow Slight 0.00 in 0.0 iph
02/20/2018 10:36 Dry 6.6F - 14F - - - - - - 0 mhos 19 - Snow Slight 0.00 in 0.0 iph
02/20/2018 10:35 Dry 6.4F - 14F - - - - - - 0 mhos 19 - Snow Slight 0.00 in 0.0 iph
02/20/2018 10:25 Dry 5.0F - 14F - - - - - - 0 mhos 17 - Snow Slight 0.00 in 0.0 iph
02/20/2018 10:21 Dry 4.6F - 14F - - - - - - 0 mhos 17 - Snow Slight 0.00 in 0.0 iph
02/20/2018 10:15 Dry 3.7F - 14F - - - - - - 0 mhos 16 - Snow Slight 0.00 in 0.0 iph
02/20/2018 10:06 Dry 2.5F - 14F - - - - - - 0 mhos 16 - Snow Slight 0.00 in 0.0 iph
02/20/2018 10:05 Dry 2.5F - 14F - - - - - - 0 mhos 15 - Snow Slight 0.00 in 0.0 iph
02/20/2018 09:55 Dry 0.9F - 14F - - - - - - 0 mhos 15 - Snow Slight 0.00 in 0.0 iph
02/20/2018 09:51 Dry 0.5F - 14F - - - - - - 0 mhos 14 - Snow Slight 0.00 in 0.0 iph
02/20/2018 09:45 Dry -0.6F - 14F - - - - - - 0 mhos 14 - Snow Slight 0.00 in 0.0 iph
02/20/2018 09:36 Ice Warning -1.8F - 14F 32F 5 0% - - 100% 0 mhos 13 - None None 0.00 in 0.0 iph
Date/Time
(MST)
Sf
Temp Chem Water Layer Surface Precipitation
Sfc Pvt Sub Frz Factor Pct Dpth DpthThk IcePct Cond Salin FI Type Intens Accum Rate
02/20/2018 09:35 Ice Warning -1.8F - 14F 32F 5 0% - - 100% 0 mhos 13 - None None 0.00 in 0.0 iph
02/20/2018 09:25 Ice Warning -3.5F - 14F 32F 5 0% - - 100% 0 mhos 12 - Snow Slight 0.00 in 0.0 iph
02/20/2018 09:21 Ice Warning -4.0F - 14F 32F 5 0% - - 100% 0 mhos 12 - Snow Slight 0.00 in 0.0 iph
02/20/2018 09:15 Ice Watch -5.1F - 14F - 5 - - - - 0 mhos 11 - None None 0.00 in 0.0 iph
02/20/2018 09:06 Ice Watch -6.2F - 14F - 5 - - - - 0 mhos 8 - None None 0.00 in 0.0 iph
02/20/2018 09:05 Ice Watch -6.3F - 14F - 5 - - - - 0 mhos 7 - None None 0.00 in 0.0 iph
02/20/2018 08:55 Ice Watch -7.6F - 14F - 5 - - - - 0 mhos 4 - None None 0.00 in 0.0 iph
02/20/2018 08:51 Ice Watch -7.6F - 14F - 5 - - - - 0 mhos 4 - None None 0.00 in 0.0 iph
02/20/2018 08:45 Ice Watch -8.5F - 14F - 5 - - - - 0 mhos 3 - None None 0.00 in 0.0 iph
02/20/2018 08:36 Ice Watch -9.0F - 14F - 5 - - - - 0 mhos 3 - None None 0.00 in 0.0 iph
02/20/2018 08:35 Ice Watch -9.0F - 14F - 5 - - - - 0 mhos 3 - None None 0.00 in 0.0 iph
02/20/2018 08:24 Ice Watch -9.6F - 14F - 5 - - - - 0 mhos 2 - None None 0.00 in 0.0 iph
02/20/2018 08:21 Ice Watch -9.8F - 14F - 5 - - - - 0 mhos 2 - None None 0.00 in 0.0 iph
02/20/2018 08:14 Dry -10.8F - 14F - - - - - - 0 mhos 2 - None None 0.00 in 0.0 iph
02/20/2018 08:06 Dry -11.9F - 14F - - - - - - 0 mhos 2 - None None 0.00 in 0.0 iph
Date/Time
(MST)
Sf
Temp Chem Water Layer Surface Precipitation
Sfc Pvt Sub Frz Factor Pct Dpth DpthThk IcePct Cond Salin FI Type Intens Accum Rate
02/20/2018 08:04 Dry -12.3F - 14F - - - - - - 0 mhos 2 - None None 0.00 in 0.0 iph
02/20/2018 07:54 Dry -13.5F - 15F - - - - - - 0 mhos 2 - None None 0.00 in 0.0 iph
02/20/2018 07:51 Dry -13.9F - 15F - - - - - - 0 mhos 2 - None None 0.00 in 0.0 iph
02/20/2018 07:44 Dry -14.8F - 15F - - - - - - 0 mhos 2 - None None 0.00 in 0.0 iph
02/20/2018 07:36 Dry -15.2F - 15F - - - - - - 0 mhos 1 - None None 0.00 in 0.0 iph
02/20/2018 07:34 Dry -15.2F - 15F - - - - - - 0 mhos 1 - None None 0.00 in 0.0 iph
02/20/2018 07:24 Dry -15.5F - 15F - - - - - - 0 mhos 1 - None None 0.00 in 0.0 iph
02/20/2018 07:21 Dry -15.5F - 15F - - - - - - 0 mhos 1 - None None 0.00 in 0.0 iph
02/20/2018 07:14 Dry -15.7F - 15F - - - - - - 0 mhos 1 - None None 0.00 in 0.0 iph
02/20/2018 07:06 Dry -15.7F - 15F - - - - - - 0 mhos 1 - None None 0.00 in 0.0 iph
02/20/2018 07:04 Dry -15.9F - 15F - - - - - - 0 mhos 1 - None None 0.00 in 0.0 iph
02/20/2018 06:54 Dry -16.1F - 15F - - - - - - 0 mhos 1 - None None 0.00 in 0.0 iph
02/20/2018 06:51 Dry -16.6F - 15F - - - - - - 0 mhos 1 - None None 0.00 in 0.0 iph
02/20/2018 06:44 Dry -16.4F - 15F - - - - - - 0 mhos 1 - None None 0.00 in 0.0 iph
02/20/2018 06:36 Dry -17.0F - 15F - - - - - - 0 mhos 1 - None None 0.00 in 0.0 iph
Date/Time
(MST)
Sf
Temp Chem Water Layer Surface Precipitation
Sfc Pvt Sub Frz Factor Pct Dpth DpthThk IcePct Cond Salin FI Type Intens Accum Rate
02/20/2018 06:34 Dry -16.8F - 15F - - - - - - 0 mhos 1 - None None 0.00 in 0.0 iph
02/20/2018 06:24 Dry -16.6F - 15F - - - - - - 0 mhos 1 - None None 0.00 in 0.0 iph
02/20/2018 06:21 Dry -16.4F - 15F - - - - - - 0 mhos 1 - None None 0.00 in 0.0 iph
02/20/2018 06:14 Dry -16.6F - 15F - - - - - - 0 mhos 1 - None None 0.00 in 0.0 iph
02/20/2018 06:06 Dry -16.8F - 15F - - - - - - 0 mhos 1 - None None 0.00 in 0.0 iph
02/20/2018 06:04 Dry -16.8F - 15F - - - - - - 0 mhos 1 - None None 0.00 in 0.0 iph
02/20/2018 05:54 Dry -16.4F - 15F - - - - - - 0 mhos 1 - None None 0.00 in 0.0 iph
02/20/2018 05:51 Dry -16.1F - 15F - - - - - - 0 mhos 1 - None None 0.00 in 0.0 iph
02/20/2018 05:43 Dry -15.7F - 15F - - - - - - 0 mhos 1 - None None 0.00 in 0.0 iph
02/20/2018 05:36 Dry -15.7F - 15F - - - - - - 0 mhos 2 - None None 0.00 in 0.0 iph
02/20/2018 05:33 Dry -15.5F - 15F - - - - - - 0 mhos 2 - None None 0.00 in 0.0 iph
02/20/2018 05:23 Dry -15.5F - 15F - - - - - - 0 mhos 2 - None None 0.00 in 0.0 iph
02/20/2018 05:21 Dry -15.5F - 15F - - - - - - 0 mhos 2 - None None 0.00 in 0.0 iph
02/20/2018 05:13 Dry -15.3F - 15F - - - - - - 0 mhos 2 - None None 0.00 in 0.0 iph
02/20/2018 05:06 Dry -15.5F - 15F - - - - - - 0 mhos 2 - None None 0.00 in 0.0 iph
Date/Time
(MST)
Sf
Temp Chem Water Layer Surface Precipitation
Sfc Pvt Sub Frz Factor Pct Dpth DpthThk IcePct Cond Salin FI Type Intens Accum Rate
02/20/2018 05:03 Dry -15.5F - 15F - - - - - - 0 mhos 2 - None None 0.00 in 0.0 iph
02/20/2018 04:53 Dry -15.7F - 15F - - - - - - 0 mhos 2 - None None 0.00 in 0.0 iph
02/20/2018 04:51 Dry -15.9F - 15F - - - - - - 0 mhos 2 - None None 0.00 in 0.0 iph
02/20/2018 04:43 Dry -15.7F - 15F - - - - - - 0 mhos 2 - None None 0.00 in 0.0 iph
02/20/2018 04:36 Dry -15.9F - 15F - - - - - - 0 mhos 2 - None None 0.00 in 0.0 iph
02/20/2018 04:33 Dry -15.5F - 15F - - - - - - 0 mhos 2 - None None 0.00 in 0.0 iph
02/20/2018 04:23 Dry -15.9F - 16F - - - - - - 0 mhos 2 - None None 0.00 in 0.0 iph
02/20/2018 04:21 Dry -15.7F - 15F - - - - - - 0 mhos 2 - None None 0.00 in 0.0 iph
02/20/2018 04:13 Dry -15.5F - 16F - - - - - - 0 mhos 2 - None None 0.00 in 0.0 iph
02/20/2018 04:06 Dry -15.9F - 16F - - - - - - 0 mhos 2 - None None 0.00 in 0.0 iph
02/20/2018 04:03 Dry -15.9F - 16F - - - - - - 0 mhos 2 - None None 0.00 in 0.0 iph
02/20/2018 03:53 Dry -15.3F - 16F - - - - - - 0 mhos 2 - None None 0.00 in 0.0 iph
02/20/2018 03:51 Dry -15.3F - 16F - - - - - - 0 mhos 2 - None None 0.00 in 0.0 iph
02/20/2018 03:43 Dry -15.2F - 16F - - - - - - 0 mhos 2 - None None 0.00 in 0.0 iph
02/20/2018 03:36 Dry -15.2F - 16F - - - - - - 0 mhos 2 - None None 0.00 in 0.0 iph
Date/Time
(MST)
Sf
Temp Chem Water Layer Surface Precipitation
Sfc Pvt Sub Frz Factor Pct Dpth DpthThk IcePct Cond Salin FI Type Intens Accum Rate
02/20/2018 03:33 Dry -15.2F - 16F - - - - - - 0 mhos 2 - None None 0.00 in 0.0 iph
02/20/2018 03:23 Dry -14.8F - 16F - - - - - - 0 mhos 2 - None None 0.00 in 0.0 iph
02/20/2018 03:21 Dry -14.6F - 16F - - - - - - 0 mhos 2 - None None 0.00 in 0.0 iph
02/20/2018 03:13 Dry -15.0F - 16F - - - - - - 0 mhos 2 - None None 0.00 in 0.0 iph
02/20/2018 03:06 Dry -15.2F - 16F - - - - - - 0 mhos 2 - None None 0.00 in 0.0 iph
02/20/2018 03:02 Dry -15.3F - 16F - - - - - - 0 mhos 2 - None None 0.00 in 0.0 iph
02/20/2018 02:52 Dry -15.3F - 16F - - - - - - 0 mhos 2 - None None 0.00 in 0.0 iph
02/20/2018 02:51 Dry -15.3F - 16F - - - - - - 0 mhos 2 - None None 0.00 in 0.0 iph
02/20/2018 02:42 Dry -15.2F - 16F - - - - - - 0 mhos 2 - None None 0.00 in 0.0 iph
02/20/2018 02:36 Dry -15.2F - 16F - - - - - - 0 mhos 2 - None None 0.00 in 0.0 iph
02/20/2018 02:32 Dry -15.2F - 16F - - - - - - 0 mhos 2 - None None 0.00 in 0.0 iph
02/20/2018 02:22 Dry -15.2F - 16F - - - - - - 0 mhos 2 - None None 0.00 in 0.0 iph
02/20/2018 02:21 Dry -15.2F - 16F - - - - - - 0 mhos 2 - None None 0.00 in 0.0 iph
02/20/2018 02:12 Dry -15.0F - 16F - - - - - - 0 mhos 2 - None None 0.00 in 0.0 iph
02/20/2018 02:06 Dry -14.8F - 16F - - - - - - 0 mhos 2 - None None 0.00 in 0.0 iph
Date/Time
(MST)
Sf
Temp Chem Water Layer Surface Precipitation
Sfc Pvt Sub Frz Factor Pct Dpth DpthThk IcePct Cond Salin FI Type Intens Accum Rate
02/20/2018 02:02 Dry -14.8F - 16F - - - - - - 0 mhos 2 - None None 0.00 in 0.0 iph
02/20/2018 01:52 Dry -14.8F - 16F - - - - - - 0 mhos 2 - None None 0.00 in 0.0 iph
02/20/2018 01:51 Dry -14.6F - 16F - - - - - - 0 mhos 2 - None None 0.00 in 0.0 iph
02/20/2018 01:42 Dry -14.3F - 17F - - - - - - 0 mhos 2 - None None 0.00 in 0.0 iph
02/20/2018 01:36 Dry -14.3F - 17F - - - - - - 0 mhos 2 - None None 0.00 in 0.0 iph
02/20/2018 01:32 Dry -14.1F - 17F - - - - - - 0 mhos 3 - None None 0.00 in 0.0 iph
02/20/2018 01:22 Dry -13.9F - 17F - - - - - - 0 mhos 4 - None None 0.00 in 0.0 iph
02/20/2018 01:21 Dry -13.9F - 17F - - - - - - 0 mhos 4 - None None 0.00 in 0.0 iph
02/20/2018 01:12 Dry -13.7F - 17F - - - - - - 0 mhos 5 - None None 0.00 in 0.0 iph
02/20/2018 01:06 Dry -13.7F - 17F - - - - - - 0 mhos 4 - None None 0.00 in 0.0 iph
02/20/2018 01:02 Dry -13.7F - 17F - - - - - - 0 mhos 5 - None None 0.00 in 0.0 iph
02/20/2018 00:52 Dry -13.5F - 17F - - - - - - 0 mhos 6 - None None 0.00 in 0.0 iph
02/20/2018 00:51 Dry -13.5F - 17F - - - - - - 0 mhos 6 - None None 0.00 in 0.0 iph
02/20/2018 00:42 Dry -13.4F - 17F - - - - - - 0 mhos 7 - None None 0.00 in 0.0 iph
02/20/2018 00:36 Dry -13.2F - 17F - - - - - - 0 mhos 8 - None None 0.00 in 0.0 iph
Date/Time
(MST)
Sf
Temp Chem Water Layer Surface Precipitation
Sfc Pvt Sub Frz Factor Pct Dpth DpthThk IcePct Cond Salin FI Type Intens Accum Rate
02/20/2018 00:32 Dry -13.0F - 17F - - - - - - 0 mhos 8 - None None 0.00 in 0.0 iph
02/20/2018 00:22 Dry -12.6F - 17F - - - - - - 0 mhos 8 - None None 0.00 in 0.0 iph
02/20/2018 00:21 Dry -12.6F - 17F - - - - - - 0 mhos 8 - None None 0.00 in 0.0 iph
02/20/2018 00:12 Dry -12.5F - 17F - - - - - - 0 mhos 8 - None None 0.00 in 0.0 iph
02/20/2018 00:06 Dry -12.3F - 17F - - - - - - 0 mhos 8 - None None 0.00 in 0.0 iph
02/20/2018 00:02 Dry -12.3F - 17F - - - - - - 0 mhos 9 - None None 0.00 in 0.0 iph
02/19/2018 23:51 Dry -12.1F - 17F - - - - - - 0 mhos 9 - None None 0.00 in 0.0 iph
02/19/2018 23:51 Dry -12.1F - 17F - - - - - - 0 mhos 9 - None None 0.00 in 0.0 iph
02/19/2018 23:41 Dry -11.6F - 17F - - - - - - 0 mhos 9 - None None 0.00 in 0.0 iph
02/19/2018 23:36 Dry -11.7F - 17F - - - - - - 0 mhos 9 - None None 0.00 in 0.0 iph
02/19/2018 23:31 Dry -11.4F - 17F - - - - - - 0 mhos 9 - None None 0.00 in 0.0 iph
02/19/2018 23:21 Dry -11.4F - 17F - - - - - - 0 mhos 9 - None None 0.00 in 0.0 iph
02/19/2018 23:21 Dry -11.4F - 17F - - - - - - 0 mhos 9 - None None 0.00 in 0.0 iph
02/19/2018 23:11 Dry -11.0F - 17F - - - - - - 0 mhos 9 - None None 0.00 in 0.0 iph
02/19/2018 23:06 Dry -11.0F - 17F - - - - - - 0 mhos 9 - None None 0.00 in 0.0 iph
Date/Time
(MST)
Sf
Temp Chem Water Layer Surface Precipitation
Sfc Pvt Sub Frz Factor Pct Dpth DpthThk IcePct Cond Salin FI Type Intens Accum Rate
02/19/2018 23:01 Dry -10.7F - 17F - - - - - - 0 mhos 9 - None None 0.00 in 0.0 iph
02/19/2018 22:51 Dry -10.3F - 17F - - - - - - 0 mhos 9 - None None 0.00 in 0.0 iph
02/19/2018 22:51 Dry -10.1F - 17F - - - - - - 0 mhos 9 - None None 0.00 in 0.0 iph
02/19/2018 22:41 Dry -9.9F - 17F - - - - - - 0 mhos 10 - None None 0.00 in 0.0 iph
02/19/2018 22:36 Dry -9.9F - 17F - - - - - - 0 mhos 10 - None None 0.00 in 0.0 iph
02/19/2018 22:31 Dry -9.8F - 17F - - - - - - 0 mhos 10 - None None 0.00 in 0.0 iph
02/19/2018 22:21 Dry -9.4F - 17F - - - - - - 0 mhos 10 - None None 0.00 in 0.0 iph
02/19/2018 22:21 Dry -9.6F - 17F - - - - - - 0 mhos 10 - None None 0.00 in 0.0 iph
02/19/2018 22:11 Dry -9.0F - 17F - - - - - - 0 mhos 10 - None None 0.00 in 0.0 iph
02/19/2018 22:06 Dry -9.0F - 18F - - - - - - 0 mhos 10 - None None 0.00 in 0.0 iph
02/19/2018 22:01 Dry -8.7F - 17F - - - - - - 0 mhos 10 - None None 0.00 in 0.0 iph
02/19/2018 21:51 Dry -8.5F - 17F - - - - - - 0 mhos 10 - None None 0.00 in 0.0 iph
02/19/2018 21:51 Dry -8.5F - 17F - - - - - - 0 mhos 10 - None None 0.00 in 0.0 iph
02/19/2018 21:41 Dry -8.3F - 17F - - - - - - 0 mhos 10 - None None 0.00 in 0.0 iph
02/19/2018 21:36 Dry -8.1F - 17F - - - - - - 0 mhos 10 - None None 0.00 in 0.0 iph
Date/Time
(MST)
Sf
Temp Chem Water Layer Surface Precipitation
Sfc Pvt Sub Frz Factor Pct Dpth DpthThk IcePct Cond Salin FI Type Intens Accum Rate
02/19/2018 21:31 Dry -7.8F - 17F - - - - - - 0 mhos 10 - None None 0.00 in 0.0 iph
02/19/2018 21:21 Dry -7.6F - 17F - - - - - - 0 mhos 11 - None None 0.00 in 0.0 iph
02/19/2018 21:21 Dry -7.6F - 17F - - - - - - 0 mhos 11 - None None 0.00 in 0.0 iph
02/19/2018 21:11 Dry -7.2F - 17F - - - - - - 0 mhos 11 - None None 0.00 in 0.0 iph
02/19/2018 21:06 Dry -7.2F - 18F - - - - - - 0 mhos 11 - None None 0.00 in 0.0 iph
02/19/2018 21:00 Dry -7.1F - 17F - - - - - - 0 mhos 11 - None None 0.00 in 0.0 iph
02/19/2018 20:51 Dry -6.7F - 17F - - - - - - 0 mhos 11 - None None 0.00 in 0.0 iph
02/19/2018 20:50 Dry -6.7F - 17F - - - - - - 0 mhos 11 - None None 0.00 in 0.0 iph
02/19/2018 20:40 Dry -6.3F - 18F - - - - - - 0 mhos 11 - None None 0.00 in 0.0 iph
02/19/2018 20:36 Dry -6.3F - 18F - - - - - - 0 mhos 11 - None None 0.00 in 0.0 iph
02/19/2018 20:30 Dry -6.2F - 17F - - - - - - 0 mhos 11 - None None 0.00 in 0.0 iph
02/19/2018 20:21 Dry -5.8F - 17F - - - - - - 0 mhos 11 - None None 0.00 in 0.0 iph
02/19/2018 20:20 Dry -5.8F - 17F - - - - - - 0 mhos 11 - None None 0.00 in 0.0 iph
02/19/2018 20:10 Dry -5.1F - 17F - - - - - - 0 mhos 12 - None None 0.00 in 0.0 iph
02/19/2018 20:06 Dry -5.1F - 17F - - - - - - 0 mhos 12 - None None 0.00 in 0.0 iph
Date/Time
(MST)
Sf
Temp Chem Water Layer Surface Precipitation
Sfc Pvt Sub Frz Factor Pct Dpth DpthThk IcePct Cond Salin FI Type Intens Accum Rate
02/19/2018 20:00 Dry -4.5F - 17F - - - - - - 0 mhos 12 - None None 0.00 in 0.0 iph
02/19/2018 19:51 Dry -4.4F - 17F - - - - - - 0 mhos 12 - None None 0.00 in 0.0 iph
02/19/2018 19:50 Dry -4.2F - 17F - - - - - - 0 mhos 12 - None None 0.00 in 0.0 iph
02/19/2018 19:40 Dry -4.0F - 17F - - - - - - 0 mhos 12 - None None 0.00 in 0.0 iph
02/19/2018 19:36 Dry -4.0F - 17F - - - - - - 0 mhos 12 - None None 0.00 in 0.0 iph
02/19/2018 19:30 Dry -3.6F - 17F - - - - - - 0 mhos 13 - None None 0.00 in 0.0 iph
02/19/2018 19:21 Dry -2.9F - 17F - - - - - - 0 mhos 13 - None None 0.00 in 0.0 iph
02/19/2018 19:20 Dry -2.9F - 17F - - - - - - 0 mhos 13 - None None 0.00 in 0.0 iph
02/19/2018 19:10 Dry -2.2F - 17F - - - - - - 0 mhos 13 - None None 0.00 in 0.0 iph
02/19/2018 19:06 Dry -2.0F - 17F - - - - - - 0 mhos 13 - None None 0.00 in 0.0 iph
02/19/2018 19:00 Dry -1.8F - 17F - - - - - - 0 mhos 14 - None None 0.00 in 0.0 iph
02/19/2018 18:51 Dry -1.1F - 17F - - - - - - 0 mhos 14 - None None 0.00 in 0.0 iph
02/19/2018 18:50 Dry -0.9F - 17F - - - - - - 0 mhos 14 - None None 0.00 in 0.0 iph
Change End Date:

Copyright © 1998-2015 Vaisala, Inc.
All Rights Reserved
Send comments about the data to:
SCAN Web ® is a registered trademark of Vaisala, Inc.
SCAN Web Version 6.0